Wrentham, Canada
Current Conditions -  °F | °C
As of 9:00 PM on Thursday 20 Nov 2014 (Local Time) from CYQL Reporting Station
Scattered Clouds Scattered Clouds  
Wind Chill: 28°   Ceiling: Unl
Heat Index: 39°   Visibility: 25mi
Dew Point: 28°   Wind: 28mph
Humidity: 65%   Direction: 250°WSW
Pressure: 29.64"   Gusts: 39mph
Location:  49.52°N, 112.18°W
Report Text: CYQL 210400Z 25024G34KT 25SM SCT250 04/M02 A2964 RMK CI3 SLP065
Loading
Personal Weather Stations






























Interactive Weather Map New forecast layout! Learn more

10-Day Weather Forecast

Advertisements
Track Severe Weather on mobile